createdAt,value
2019-01-12T00:00:32.998Z,67.35
2019-01-12T00:03:04.915Z,67.48
2019-01-12T00:05:34.192Z,67.72
2019-01-12T00:08:03.471Z,68.15
2019-01-12T00:10:33.882Z,68.56
2019-01-12T00:13:02.750Z,68.87
2019-01-12T00:15:31.614Z,68.83
2019-01-12T00:18:03.700Z,68.84
2019-01-12T00:20:35.026Z,69.09
2019-01-12T00:23:05.444Z,69.13
2019-01-12T00:25:34.307Z,69.22
2019-01-12T00:28:03.209Z,69.09
2019-01-12T00:30:32.125Z,69.05
2019-01-12T00:33:00.986Z,69.06
2019-01-12T00:35:30.112Z,69.13
2019-01-12T00:37:58.912Z,69.00
2019-01-12T00:40:32.518Z,69.23
2019-01-12T00:43:03.618Z,68.98
2019-01-12T00:45:37.147Z,68.85
2019-01-12T00:48:09.986Z,68.96
2019-01-12T00:50:38.859Z,68.72
2019-01-12T00:53:07.761Z,68.67
2019-01-12T00:55:36.715Z,68.17
2019-01-12T00:58:05.588Z,67.78
2019-01-12T01:00:34.468Z,67.83
2019-01-12T01:03:03.402Z,67.82
2019-01-12T01:05:33.553Z,67.96
2019-01-12T01:08:02.819Z,68.24
2019-01-12T01:10:31.842Z,68.27
2019-01-12T01:13:01.255Z,68.69
2019-01-12T01:15:32.768Z,68.93
2019-01-12T01:18:01.686Z,69.13
2019-01-12T01:20:31.143Z,69.62
2019-01-12T01:23:00.070Z,69.82
2019-01-12T01:25:29.162Z,69.77
2019-01-12T01:27:58.123Z,69.64
2019-01-12T01:30:27.018Z,69.61
2019-01-12T01:32:55.944Z,69.85
2019-01-12T01:35:24.836Z,70.02
2019-01-12T01:37:53.704Z,70.15
2019-01-12T01:40:22.541Z,69.63
2019-01-12T01:42:51.835Z,69.55
2019-01-12T01:45:20.675Z,68.89
2019-01-12T01:47:49.655Z,68.93
2019-01-12T01:50:19.686Z,69.10
2019-01-12T01:52:48.619Z,68.67
2019-01-12T01:55:17.491Z,68.55
2019-01-12T01:57:46.314Z,68.71
2019-01-12T02:00:17.359Z,68.84
2019-01-12T02:03:13.104Z,68.99
2019-01-12T02:05:41.986Z,69.32
2019-01-12T02:08:10.907Z,69.28
2019-01-12T02:10:39.912Z,69.53
2019-01-12T02:13:08.795Z,69.77
2019-01-12T02:15:37.671Z,69.79
2019-01-12T02:18:06.639Z,69.94
2019-01-12T02:20:35.642Z,69.94
2019-01-12T02:23:04.693Z,69.89
2019-01-12T02:25:33.928Z,69.91
2019-01-12T02:28:03.176Z,70.12
2019-01-12T02:30:32.102Z,70.04
2019-01-12T02:33:01.094Z,70.36
2019-01-12T02:35:30.005Z,70.16
2019-01-12T02:37:58.998Z,70.31
2019-01-12T02:40:27.984Z,70.22
2019-01-12T02:42:56.954Z,69.92
2019-01-12T02:45:27.413Z,70.20
2019-01-12T02:47:56.400Z,70.62
2019-01-12T02:50:25.350Z,70.31
2019-01-12T02:52:54.317Z,70.45
2019-01-12T02:55:23.188Z,70.67
2019-01-12T02:57:54.616Z,70.79
2019-01-12T03:00:25.519Z,71.09
2019-01-12T03:02:54.896Z,71.46
2019-01-12T03:05:23.872Z,71.84
2019-01-12T03:07:52.964Z,72.19
2019-01-12T03:10:21.792Z,72.45
2019-01-12T03:12:51.034Z,72.99
2019-01-12T03:15:20.043Z,73.87
2019-01-12T03:17:52.338Z,74.11
2019-01-12T03:20:25.853Z,74.55
2019-01-12T03:22:55.778Z,75.02
2019-01-12T03:25:24.996Z,75.09
2019-01-12T03:27:53.931Z,75.14
2019-01-12T03:30:26.566Z,75.50
2019-01-12T03:32:55.650Z,75.80
2019-01-12T03:35:24.649Z,75.80
2019-01-12T03:37:53.576Z,76.32
2019-01-12T03:40:23.204Z,76.47
2019-01-12T03:42:52.494Z,76.59
2019-01-12T03:45:22.387Z,76.71
2019-01-12T03:47:53.049Z,76.75
2019-01-12T03:50:22.785Z,76.65
2019-01-12T03:52:51.509Z,76.73
2019-01-12T03:55:25.469Z,77.06
2019-01-12T03:57:53.245Z,77.17
2019-01-12T04:00:25.892Z,77.26
2019-01-12T04:02:55.129Z,77.25
2019-01-12T04:05:24.244Z,77.15
2019-01-12T04:07:53.915Z,77.34
2019-01-12T04:10:22.731Z,77.32
2019-01-12T04:12:51.620Z,77.13
2019-01-12T04:15:20.602Z,76.68
2019-01-12T04:17:52.207Z,76.58
2019-01-12T04:20:21.289Z,76.76
2019-01-12T04:22:50.166Z,77.01
2019-01-12T04:25:19.139Z,77.11
2019-01-12T04:27:48.007Z,77.17
2019-01-12T04:30:18.372Z,77.09
2019-01-12T04:32:47.462Z,77.12
2019-01-12T04:35:16.524Z,77.12
2019-01-12T04:37:45.581Z,77.11
2019-01-12T04:40:19.099Z,77.65
2019-01-12T04:42:47.986Z,78.58
2019-01-12T04:45:16.938Z,79.21
2019-01-12T04:47:45.823Z,79.68
2019-01-12T04:50:16.208Z,80.23
2019-01-12T04:52:45.141Z,80.77
2019-01-12T04:55:14.457Z,80.78
2019-01-12T04:57:43.325Z,81.32
2019-01-12T05:00:17.338Z,81.42
2019-01-12T05:02:46.344Z,81.68
2019-01-12T05:05:15.636Z,81.23
2019-01-12T05:07:44.547Z,81.08
2019-01-12T05:10:14.042Z,81.42
2019-01-12T05:12:42.950Z,81.31
2019-01-12T05:15:12.959Z,81.38
2019-01-12T05:17:41.925Z,81.04
2019-01-12T05:20:13.910Z,80.40
2019-01-12T05:22:42.768Z,80.67
2019-01-12T05:25:11.861Z,80.60
2019-01-12T05:27:40.835Z,80.61
2019-01-12T05:30:12.328Z,80.37
2019-01-12T05:32:41.284Z,80.12
2019-01-12T05:35:10.278Z,80.32
2019-01-12T05:37:39.144Z,80.32
2019-01-12T05:40:08.529Z,79.94
2019-01-12T05:42:37.513Z,80.18
2019-01-12T05:45:07.013Z,80.13
2019-01-12T05:47:37.495Z,80.21
2019-01-12T05:50:08.183Z,80.25
2019-01-12T05:52:37.144Z,80.38
2019-01-12T05:55:06.319Z,80.40
2019-01-12T05:57:38.405Z,80.44
2019-01-12T06:00:11.517Z,80.39
2019-01-12T06:02:40.418Z,80.33
2019-01-12T06:05:09.418Z,80.55
2019-01-12T06:07:39.673Z,80.73
2019-01-12T06:10:08.870Z,81.09
2019-01-12T06:12:37.878Z,81.35
2019-01-12T06:15:09.296Z,81.28
2019-01-12T06:17:39.773Z,81.33
2019-01-12T06:20:11.980Z,81.41
2019-01-12T06:22:43.683Z,81.02
2019-01-12T06:25:12.692Z,81.35
2019-01-12T06:27:41.609Z,81.66
2019-01-12T06:30:13.511Z,81.71
2019-01-12T06:32:42.421Z,81.96
2019-01-12T06:35:11.299Z,82.27
2019-01-12T06:37:44.404Z,82.14
2019-01-12T06:40:16.621Z,82.42
2019-01-12T06:42:45.521Z,81.75
2019-01-12T06:45:14.806Z,81.95
2019-01-12T06:47:43.758Z,81.90
2019-01-12T06:50:13.727Z,82.40
2019-01-12T06:52:42.587Z,82.29
2019-01-12T06:55:11.559Z,82.21
2019-01-12T06:57:40.496Z,81.97
2019-01-12T07:00:20.516Z,81.70
2019-01-12T07:02:49.623Z,81.82
2019-01-12T07:05:18.610Z,80.76
2019-01-12T07:07:47.519Z,80.90
2019-01-12T07:10:16.495Z,80.75
2019-01-12T07:12:45.374Z,80.75
2019-01-12T07:15:14.467Z,80.43
2019-01-12T07:17:43.421Z,80.01
2019-01-12T07:20:14.278Z,80.11
2019-01-12T07:22:43.351Z,80.01
2019-01-12T07:25:12.331Z,79.85
2019-01-12T07:27:41.217Z,80.06
2019-01-12T07:30:14.505Z,79.88
2019-01-12T07:32:43.466Z,79.68
2019-01-12T07:35:12.958Z,79.88
2019-01-12T07:37:41.863Z,79.79
2019-01-12T07:40:10.728Z,79.85
2019-01-12T07:42:39.603Z,79.16
2019-01-12T07:45:08.582Z,79.05
2019-01-12T07:47:37.527Z,79.37
2019-01-12T07:50:07.861Z,79.07
2019-01-12T07:52:36.837Z,79.08
2019-01-12T07:55:06.308Z,78.72
2019-01-12T07:57:35.292Z,78.58
2019-01-12T08:00:06.030Z,78.21
2019-01-12T08:02:34.918Z,78.07
2019-01-12T08:05:03.915Z,77.98
2019-01-12T08:07:32.874Z,77.66
2019-01-12T08:13:29.985Z,77.11
2019-01-12T08:16:01.200Z,77.96
2019-01-12T08:18:30.170Z,77.39
2019-01-12T08:21:06.250Z,77.32
2019-01-12T08:23:35.274Z,77.04
2019-01-12T08:26:04.245Z,77.36
2019-01-12T08:28:33.132Z,77.22
2019-01-12T08:31:03.474Z,77.79
2019-01-12T08:33:32.332Z,78.36
2019-01-12T08:36:01.195Z,77.84
2019-01-12T08:38:31.022Z,78.17
2019-01-12T08:40:59.947Z,78.48
2019-01-12T08:43:29.098Z,78.48
2019-01-12T08:45:58.595Z,78.45
2019-01-12T08:48:27.853Z,78.34
2019-01-12T08:50:56.808Z,78.30
2019-01-12T08:53:25.756Z,78.57
2019-01-12T08:55:54.670Z,79.10
2019-01-12T09:02:03.682Z,78.76
2019-01-12T09:04:32.650Z,79.44
2019-01-12T09:07:03.663Z,79.98
2019-01-12T09:09:32.476Z,79.89
2019-01-12T09:12:01.345Z,79.19
2019-01-12T09:14:30.219Z,79.05
2019-01-12T09:16:59.193Z,78.42
2019-01-12T09:19:29.830Z,78.45
2019-01-12T09:21:58.842Z,78.81
2019-01-12T09:24:27.825Z,78.18
2019-01-12T09:26:56.852Z,77.83
2019-01-12T09:29:25.844Z,77.54
2019-01-12T09:31:58.250Z,78.16
2019-01-12T09:34:27.225Z,78.01
2019-01-12T09:36:56.185Z,78.40
2019-01-12T09:39:25.094Z,77.37
2019-01-12T09:41:54.025Z,77.78
2019-01-12T09:44:23.015Z,77.45
2019-01-12T09:46:52.098Z,77.75
2019-01-12T09:49:21.087Z,77.68
2019-01-12T09:51:50.103Z,77.56
2019-01-12T09:54:19.086Z,77.02
2019-01-12T09:56:51.762Z,77.24
2019-01-12T09:59:19.026Z,77.41
2019-01-12T10:01:48.365Z,78.28
2019-01-12T10:04:18.543Z,78.93
2019-01-12T10:06:49.077Z,79.16
2019-01-12T10:09:17.985Z,79.20
2019-01-12T10:11:46.998Z,79.35
2019-01-12T10:14:15.974Z,79.35
2019-01-12T10:17:03.847Z,79.87
2019-01-12T10:19:33.354Z,80.28
2019-01-12T10:22:02.743Z,80.63
2019-01-12T10:24:31.638Z,80.17
2019-01-12T10:27:00.538Z,79.79
2019-01-12T10:29:29.400Z,79.82
2019-01-12T10:31:58.466Z,79.80
2019-01-12T10:34:27.407Z,79.77
2019-01-12T10:36:56.384Z,79.74
2019-01-12T10:39:25.382Z,79.71
2019-01-12T10:42:30.504Z,79.79
2019-01-12T10:45:00.726Z,80.58
2019-01-12T10:47:34.473Z,80.85
2019-01-12T10:50:08.338Z,80.98
2019-01-12T10:52:38.932Z,81.40
2019-01-12T10:55:08.053Z,81.26
2019-01-12T10:57:38.467Z,81.67
2019-01-12T11:00:16.530Z,81.93
2019-01-12T11:02:48.692Z,82.26
2019-01-12T11:05:18.537Z,82.27
2019-01-12T11:08:06.259Z,82.67
2019-01-12T11:10:35.250Z,82.45
2019-01-12T11:13:04.388Z,82.66
2019-01-12T11:15:33.681Z,83.10
2019-01-12T11:18:03.002Z,83.09
2019-01-12T11:20:32.082Z,83.16
2019-01-12T11:23:01.151Z,82.87
2019-01-12T11:25:30.071Z,82.60
2019-01-12T11:27:59.139Z,82.60
2019-01-12T11:30:28.131Z,82.81
2019-01-12T11:32:58.174Z,83.03
2019-01-12T11:35:28.071Z,83.08
2019-01-12T11:37:58.768Z,82.81
2019-01-12T11:40:27.579Z,82.82
2019-01-12T11:45:51.917Z,82.93
2019-01-12T11:48:23.842Z,83.06
2019-01-12T11:51:14.225Z,82.90
2019-01-12T11:53:43.187Z,82.81
2019-01-12T11:56:12.151Z,82.78
2019-01-12T11:58:41.067Z,82.95
2019-01-12T12:01:10.060Z,83.06
2019-01-12T12:03:38.973Z,83.28
2019-01-12T12:06:07.970Z,83.15
2019-01-12T12:08:37.792Z,83.04
2019-01-12T12:11:57.531Z,83.25
2019-01-12T12:14:26.419Z,83.33
2019-01-12T12:16:55.500Z,83.42
2019-01-12T12:19:25.320Z,83.69
2019-01-12T12:21:54.293Z,83.37
2019-01-12T12:24:23.224Z,83.15
2019-01-12T12:26:52.187Z,83.04
2019-01-12T12:29:21.110Z,83.52
2019-01-12T12:31:50.039Z,83.79
2019-01-12T12:34:19.015Z,83.23
2019-01-12T12:36:49.481Z,83.10
2019-01-12T12:39:18.544Z,83.55
2019-01-12T12:41:47.467Z,83.14
2019-01-12T12:44:16.494Z,83.33
2019-01-12T12:46:45.347Z,82.96
2019-01-12T12:49:14.358Z,83.16
2019-01-12T12:51:43.344Z,83.13
2019-01-12T12:54:12.296Z,83.28
2019-01-12T12:56:41.193Z,83.53
2019-01-12T12:59:10.104Z,83.66
2019-01-12T13:01:39.024Z,83.78
2019-01-12T13:04:07.915Z,83.83
2019-01-12T13:06:36.882Z,83.74
2019-01-12T13:09:13.925Z,84.00
2019-01-12T13:11:42.862Z,83.97
2019-01-12T13:14:11.903Z,83.87
2019-01-12T13:16:40.838Z,83.80
2019-01-12T13:19:09.821Z,83.97
2019-01-12T13:21:38.729Z,84.16
2019-01-12T13:24:07.714Z,83.88
2019-01-12T13:26:36.650Z,83.96
2019-01-12T13:29:06.300Z,83.76
2019-01-12T13:31:37.317Z,83.72
2019-01-12T13:34:08.691Z,83.27
2019-01-12T13:36:38.129Z,83.23
2019-01-12T13:39:08.606Z,83.16
2019-01-12T13:41:37.644Z,83.78
2019-01-12T13:44:06.652Z,83.76
2019-01-12T13:46:37.088Z,83.47
2019-01-12T13:49:06.172Z,83.72
2019-01-12T13:51:35.162Z,82.51
2019-01-12T13:54:06.926Z,82.33
2019-01-12T13:56:36.519Z,82.66
2019-01-12T13:59:05.524Z,82.84
2019-01-12T14:01:34.526Z,82.41
2019-01-12T14:04:03.539Z,82.34
2019-01-12T14:06:32.399Z,82.86
2019-01-12T14:09:02.285Z,83.29
2019-01-12T14:11:31.316Z,83.65
2019-01-12T14:14:12.405Z,84.08
2019-01-12T14:16:41.278Z,82.52
2019-01-12T14:19:10.226Z,81.22
2019-01-12T14:21:39.240Z,80.53
2019-01-12T14:25:10.377Z,79.58
2019-01-12T14:27:39.440Z,79.62
2019-01-12T14:30:15.358Z,79.72
2019-01-12T14:32:42.893Z,80.97
2019-01-12T14:35:16.585Z,80.42
2019-01-12T14:37:47.044Z,80.41
2019-01-12T14:40:17.409Z,80.78
2019-01-12T14:42:46.406Z,81.28
2019-01-12T14:45:18.073Z,81.39
2019-01-12T14:47:47.038Z,80.96
2019-01-12T14:50:16.045Z,80.67
2019-01-12T14:52:44.998Z,79.50
2019-01-12T14:55:14.969Z,79.91
2019-01-12T14:57:44.266Z,79.81
2019-01-12T15:00:16.157Z,80.00
2019-01-12T15:02:45.736Z,78.97
2019-01-12T15:05:17.224Z,78.00
2019-01-12T15:07:46.226Z,76.51
2019-01-12T15:10:16.725Z,77.83
2019-01-12T15:12:46.024Z,78.24
2019-01-12T15:15:15.639Z,76.85
2019-01-12T15:17:45.022Z,76.90
2019-01-12T15:21:19.397Z,75.83
2019-01-12T15:23:48.645Z,75.97
2019-01-12T15:26:17.860Z,75.70
2019-01-12T15:28:47.027Z,76.28
2019-01-12T15:31:19.329Z,74.73
2019-01-12T15:33:49.028Z,75.10
2019-01-12T15:36:17.971Z,76.18
2019-01-12T15:38:46.901Z,75.24
2019-01-12T15:44:46.280Z,76.51
2019-01-12T15:47:56.985Z,74.78
2019-01-12T15:50:26.855Z,75.18
2019-01-12T15:52:56.161Z,74.54
2019-01-12T15:55:25.524Z,74.11
2019-01-12T15:57:54.576Z,73.76
2019-01-12T16:00:28.241Z,74.37
2019-01-12T16:02:58.521Z,74.14
2019-01-12T16:05:29.330Z,74.67
2019-01-12T16:07:58.504Z,74.30
2019-01-12T16:10:27.713Z,74.96
2019-01-12T16:12:57.581Z,75.36
2019-01-12T16:15:28.747Z,74.90
2019-01-12T16:18:03.063Z,74.82
2019-01-12T16:20:44.246Z,74.94
2019-01-12T16:23:16.189Z,75.50
2019-01-12T16:25:45.435Z,75.53
2019-01-12T16:28:14.728Z,75.64
2019-01-12T16:30:46.315Z,75.99
2019-01-12T16:33:15.240Z,76.17
2019-01-12T16:39:12.658Z,76.30
2019-01-12T16:42:23.212Z,76.38
2019-01-12T16:44:52.175Z,76.21
2019-01-12T16:47:21.150Z,76.71
2019-01-12T16:49:50.036Z,76.19
2019-01-12T16:52:19.018Z,76.27
2019-01-12T16:58:30.573Z,75.56
2019-01-12T17:00:59.446Z,76.26
2019-01-12T17:03:28.405Z,76.82
2019-01-12T17:06:12.409Z,77.49
2019-01-12T17:08:42.953Z,78.29
2019-01-12T17:11:14.160Z,77.52
2019-01-12T17:13:43.439Z,77.58
2019-01-12T17:16:12.638Z,77.70
2019-01-12T17:18:41.538Z,77.87
2019-01-12T17:21:10.513Z,77.50
2019-01-12T17:23:39.583Z,78.17
2019-01-12T17:26:08.461Z,77.81
2019-01-12T17:28:37.575Z,77.51
2019-01-12T17:31:06.449Z,77.92
2019-01-12T17:33:35.425Z,78.42
2019-01-12T17:36:04.431Z,78.54
2019-01-12T17:38:33.367Z,78.75
2019-01-12T17:41:02.373Z,78.99
2019-01-12T17:43:31.383Z,78.36
2019-01-12T17:46:00.307Z,78.87
2019-01-12T17:48:29.192Z,78.60
2019-01-12T17:50:58.159Z,78.62
2019-01-12T17:53:27.134Z,79.12
2019-01-12T17:55:56.095Z,78.86
2019-01-12T17:58:25.095Z,79.16
2019-01-12T18:00:54.481Z,78.89
2019-01-12T18:03:23.415Z,79.13
2019-01-12T18:05:52.507Z,79.37
2019-01-12T18:08:21.571Z,79.56
2019-01-12T18:10:50.583Z,78.70
2019-01-12T18:13:19.502Z,79.32
2019-01-12T18:15:48.303Z,79.42
2019-01-12T18:18:17.273Z,79.10
2019-01-12T18:20:46.310Z,78.96
2019-01-12T18:23:15.286Z,79.19
2019-01-12T18:25:44.242Z,79.38
2019-01-12T18:28:13.540Z,79.62
2019-01-12T18:34:22.451Z,79.12
2019-01-12T18:36:51.347Z,79.62
2019-01-12T18:39:20.286Z,79.60
2019-01-12T18:41:49.265Z,79.56
2019-01-12T18:47:45.499Z,79.46
2019-01-12T18:50:19.323Z,79.62
2019-01-12T18:52:50.117Z,80.41
2019-01-12T18:55:19.408Z,79.96
2019-01-12T18:57:48.391Z,79.64
2019-01-12T19:00:19.381Z,79.65
2019-01-12T19:02:48.369Z,79.53
2019-01-12T19:05:17.650Z,79.17
2019-01-12T19:07:46.686Z,79.29
2019-01-12T19:10:15.765Z,78.89
2019-01-12T19:12:44.807Z,78.89
2019-01-12T19:15:19.049Z,78.71
2019-01-12T19:17:48.053Z,78.80
2019-01-12T19:20:17.076Z,78.40
2019-01-12T19:22:46.057Z,78.28
2019-01-12T19:25:15.271Z,78.49
2019-01-12T19:27:44.424Z,78.11
2019-01-12T19:30:15.909Z,78.83
2019-01-12T19:32:44.967Z,79.75
2019-01-12T19:35:14.575Z,79.88
2019-01-12T19:37:43.576Z,80.12
2019-01-12T19:40:18.076Z,79.87
2019-01-12T19:42:47.029Z,79.99
2019-01-12T19:45:16.621Z,80.06
2019-01-12T19:47:46.910Z,80.21
2019-01-12T19:50:19.533Z,80.03
2019-01-12T19:52:48.876Z,80.13
2019-01-12T19:55:17.947Z,79.46
2019-01-12T19:57:47.873Z,79.56
2019-01-12T20:00:18.773Z,79.59
2019-01-12T20:02:47.839Z,79.47
2019-01-12T20:05:17.410Z,79.71
2019-01-12T20:07:46.438Z,79.81
2019-01-12T20:10:16.215Z,79.41
2019-01-12T20:12:45.288Z,79.43
2019-01-12T20:15:17.115Z,79.75
2019-01-12T20:17:46.075Z,78.63
2019-01-12T20:20:15.368Z,79.13
2019-01-12T20:22:44.371Z,79.05
2019-01-12T20:25:16.779Z,79.10
2019-01-12T20:27:45.726Z,79.29
2019-01-12T20:30:30.069Z,79.08
2019-01-12T20:33:23.183Z,79.45
2019-01-12T20:36:39.372Z,79.52
2019-01-12T20:39:54.935Z,78.87
2019-01-12T20:42:47.733Z,79.28
2019-01-12T20:45:57.328Z,79.29
2019-01-12T20:48:51.353Z,78.48
2019-01-12T20:52:00.141Z,78.05
2019-01-12T20:54:49.019Z,77.82
2019-01-12T20:58:02.208Z,78.02
2019-01-12T21:01:18.566Z,79.54
2019-01-12T21:04:30.446Z,78.27
2019-01-12T21:11:12.651Z,78.07
2019-01-12T21:14:28.692Z,76.92
2019-01-12T21:17:09.140Z,77.50
2019-01-12T21:19:38.182Z,77.60
2019-01-12T21:22:07.366Z,77.76
2019-01-12T21:24:36.395Z,78.04
2019-01-12T21:27:05.452Z,78.02
2019-01-12T21:29:35.314Z,77.92
2019-01-12T21:32:04.785Z,77.88
2019-01-12T21:34:42.980Z,78.28
2019-01-12T21:37:14.805Z,78.47
2019-01-12T21:39:43.831Z,79.02
2019-01-12T21:42:12.954Z,79.03
2019-01-12T21:44:41.864Z,79.16
2019-01-12T21:47:10.837Z,79.68
2019-01-12T21:49:39.854Z,79.92
2019-01-12T21:52:08.924Z,80.08
2019-01-12T21:54:39.233Z,80.23
2019-01-12T21:57:08.696Z,80.40
2019-01-12T21:59:42.432Z,80.84
2019-01-12T22:02:11.427Z,80.64
2019-01-12T22:07:46.952Z,80.61
2019-01-12T22:10:19.199Z,80.48
2019-01-12T22:12:47.026Z,80.19
2019-01-12T22:15:16.198Z,79.98
2019-01-12T22:17:45.238Z,79.71
2019-01-12T22:20:16.040Z,78.81
2019-01-12T22:22:46.708Z,78.72
2019-01-12T22:25:15.612Z,78.40
2019-01-12T22:27:44.498Z,78.27
2019-01-12T22:30:17.277Z,78.47
2019-01-12T22:32:46.428Z,78.25
2019-01-12T22:35:15.417Z,78.47
2019-01-12T22:37:44.631Z,78.49
2019-01-12T22:40:16.397Z,78.54
2019-01-12T22:42:45.388Z,78.75
2019-01-12T22:45:14.343Z,78.92
2019-01-12T22:47:43.236Z,79.02
2019-01-12T22:50:13.143Z,79.16
2019-01-12T22:52:42.171Z,79.26
2019-01-12T22:55:13.648Z,79.42
2019-01-12T22:57:43.009Z,79.79
2019-01-12T23:00:28.361Z,80.41
2019-01-12T23:02:57.334Z,80.80
2019-01-12T23:05:26.235Z,81.08
2019-01-12T23:07:55.222Z,81.10
2019-01-12T23:10:24.214Z,80.87
2019-01-12T23:12:53.227Z,80.50
2019-01-12T23:15:22.175Z,80.61
2019-01-12T23:17:51.053Z,80.90
2019-01-12T23:20:20.022Z,81.16
2019-01-12T23:22:48.968Z,81.17
2019-01-12T23:25:20.178Z,81.26
2019-01-12T23:27:51.074Z,81.22
2019-01-12T23:30:20.087Z,81.49
2019-01-12T23:32:49.033Z,81.66
2019-01-12T23:35:18.057Z,81.48
2019-01-12T23:37:48.846Z,81.55
2019-01-12T23:40:20.347Z,81.39
2019-01-12T23:42:52.428Z,81.34
2019-01-12T23:45:21.433Z,81.24
2019-01-12T23:47:50.429Z,81.48
2019-01-12T23:50:19.393Z,81.40
2019-01-12T23:52:48.285Z,81.25
2019-01-12T23:55:17.623Z,81.47
2019-01-12T23:57:46.624Z,81.48
